Time;durP1;ratioP1;P1;durP2;ratioP2;P2;SDS_P1;SDS_P2;PMS_P1;PMS_P2;Temp;Humidity;BMP_temperature;BMP_pressure;BME280_temperature;BME280_humidity;BME280_pressure;Samples;Min_cycle;Max_cycle;Signal;HPM_P1;HPM_P2
2023/10/29 00:00:10;;;;;;;15.85;7.20;;;10.50;99.90;;;;;;5037309;28;20044;-77
2023/10/29 00:02:36;;;;;;;16.08;7.47;;;10.40;99.90;;;;;;5053709;28;20144;-76
2023/10/29 00:05:01;;;;;;;15.70;7.72;;;10.50;99.90;;;;;;5054180;28;20052;-76
2023/10/29 00:07:27;;;;;;;12.43;7.18;;;10.50;99.90;;;;;;5053608;28;20084;-76
2023/10/29 00:09:53;;;;;;;16.42;7.78;;;10.50;99.90;;;;;;5037353;28;20049;-76
2023/10/29 00:12:18;;;;;;;13.70;7.70;;;10.50;99.90;;;;;;5037080;28;20396;-76
2023/10/29 00:14:44;;;;;;;15.57;8.32;;;10.60;99.90;;;;;;5036757;28;20087;-76
2023/10/29 00:17:09;;;;;;;13.15;7.93;;;10.50;99.90;;;;;;5037112;28;20080;-77
2023/10/29 00:19:35;;;;;;;14.25;7.82;;;10.60;99.90;;;;;;5036333;28;20044;-76
2023/10/29 00:22:01;;;;;;;13.27;7.10;;;10.50;99.90;;;;;;5036877;28;20060;-76
2023/10/29 00:24:27;;;;;;;11.73;7.45;;;10.50;99.90;;;;;;5037209;28;20053;-76
2023/10/29 00:26:53;;;;;;;14.40;8.32;;;10.60;99.90;;;;;;5036928;28;20053;-76
2023/10/29 00:29:18;;;;;;;13.38;7.60;;;10.60;99.90;;;;;;5037137;28;20045;-77
2023/10/29 00:31:44;;;;;;;12.95;6.72;;;10.60;99.90;;;;;;5036751;28;20045;-76
2023/10/29 00:34:10;;;;;;;11.15;6.25;;;10.60;99.90;;;;;;5036776;28;20063;-76
2023/10/29 00:36:35;;;;;;;13.20;6.93;;;10.60;99.90;;;;;;5053142;28;20044;-76
2023/10/29 00:39:01;;;;;;;11.73;6.97;;;10.70;99.90;;;;;;5036736;28;20076;-76
2023/10/29 00:41:27;;;;;;;10.65;5.88;;;10.60;99.90;;;;;;5036690;28;20041;-76
2023/10/29 00:43:52;;;;;;;9.75;6.13;;;10.60;99.90;;;;;;5036587;28;20040;-76
2023/10/29 00:46:19;;;;;;;9.35;6.63;;;10.70;99.90;;;;;;5054267;28;20053;-76
2023/10/29 00:48:45;;;;;;;12.55;6.43;;;10.70;99.90;;;;;;5036528;28;20107;-76
2023/10/29 00:51:14;;;;;;;13.55;6.85;;;10.70;99.90;;;;;;5036229;28;20049;-76
2023/10/29 00:53:41;;;;;;;11.35;5.97;;;10.70;99.90;;;;;;5036640;28;20041;-76
2023/10/29 00:56:08;;;;;;;10.40;5.45;;;10.70;99.90;;;;;;5054134;28;20083;-76
2023/10/29 00:58:34;;;;;;;10.18;5.28;;;10.70;99.90;;;;;;5052875;28;20044;-76
2023/10/29 01:01:00;;;;;;;9.30;5.00;;;10.70;99.90;;;;;;5036105;28;20062;-76
2023/10/29 01:03:25;;;;;;;8.43;4.90;;;10.70;99.90;;;;;;5036069;28;20056;-76
2023/10/29 01:05:51;;;;;;;9.05;5.47;;;10.80;99.90;;;;;;5053886;28;20044;-76
2023/10/29 01:08:18;;;;;;;9.52;6.25;;;10.80;99.90;;;;;;5052951;28;20472;-76
2023/10/29 01:10:43;;;;;;;8.25;5.57;;;10.80;99.90;;;;;;5053912;28;20136;-76
2023/10/29 01:13:09;;;;;;;9.38;5.82;;;10.80;99.90;;;;;;5052724;28;20124;-76
2023/10/29 01:15:35;;;;;;;12.18;5.70;;;10.80;99.90;;;;;;5036016;28;20060;-76
2023/10/29 01:18:01;;;;;;;10.57;5.95;;;10.80;99.90;;;;;;5035821;28;20404;-76
2023/10/29 01:20:27;;;;;;;9.48;5.75;;;10.80;99.90;;;;;;5052650;28;20059;-76
2023/10/29 01:22:53;;;;;;;9.90;6.75;;;10.90;99.90;;;;;;5053571;28;20431;-76
2023/10/29 01:25:19;;;;;;;9.38;5.57;;;10.90;99.90;;;;;;5052910;28;20495;-76
2023/10/29 01:27:44;;;;;;;9.00;6.00;;;10.90;99.90;;;;;;5052435;28;20076;-76
2023/10/29 01:30:11;;;;;;;7.75;5.85;;;10.90;99.90;;;;;;5035277;28;20049;-77
2023/10/29 01:32:38;;;;;;;10.13;5.95;;;10.90;99.90;;;;;;5053498;28;20048;-77
2023/10/29 01:35:04;;;;;;;8.77;5.18;;;11.00;99.90;;;;;;5035615;28;20045;-76
2023/10/29 01:37:29;;;;;;;7.90;5.35;;;11.00;99.90;;;;;;5035693;28;20041;-76
2023/10/29 01:39:55;;;;;;;7.63;4.70;;;11.00;99.90;;;;;;5035810;28;20074;-76
2023/10/29 01:42:21;;;;;;;7.30;3.83;;;11.00;99.90;;;;;;5035595;28;20075;-76
2023/10/29 01:44:47;;;;;;;8.68;5.30;;;11.00;99.90;;;;;;5052175;28;20052;-76
2023/10/29 01:47:12;;;;;;;10.15;4.68;;;11.00;99.90;;;;;;5052076;28;20045;-76
2023/10/29 01:49:38;;;;;;;6.35;4.35;;;11.10;99.90;;;;;;5035588;28;20510;-76
2023/10/29 01:52:04;;;;;;;8.05;4.95;;;11.10;99.90;;;;;;5035467;28;20500;-77
2023/10/29 01:54:30;;;;;;;8.50;5.32;;;11.20;99.90;;;;;;5035612;28;20052;-76
2023/10/29 01:56:55;;;;;;;7.43;5.25;;;11.20;99.90;;;;;;5053492;28;20037;-76
2023/10/29 01:59:21;;;;;;;8.60;6.22;;;11.30;99.90;;;;;;5035711;28;20043;-77
2023/10/29 02:01:49;;;;;;;9.90;6.18;;;11.30;99.90;;;;;;5035380;28;20439;-77
2023/10/29 02:04:14;;;;;;;8.75;6.07;;;11.30;99.90;;;;;;5053101;28;20449;-77
2023/10/29 02:06:40;;;;;;;9.48;6.38;;;11.30;99.90;;;;;;5035397;28;20515;-77
2023/10/29 02:09:08;;;;;;;11.60;6.38;;;11.30;99.90;;;;;;5035533;28;20047;-78
2023/10/29 02:11:35;;;;;;;11.65;6.60;;;11.40;99.90;;;;;;5035444;28;20064;-77
2023/10/29 02:14:01;;;;;;;10.73;6.80;;;11.40;99.90;;;;;;5035098;28;20444;-77
2023/10/29 02:16:27;;;;;;;9.60;6.47;;;11.40;99.90;;;;;;5053252;28;20488;-77
2023/10/29 02:18:53;;;;;;;11.30;7.25;;;11.40;99.90;;;;;;5035283;28;20080;-77
2023/10/29 02:21:20;;;;;;;11.48;7.28;;;11.40;99.90;;;;;;5035472;28;20052;-78
2023/10/29 02:23:46;;;;;;;9.18;6.50;;;11.50;99.90;;;;;;5052126;28;20061;-78
2023/10/29 02:26:12;;;;;;;9.98;7.50;;;11.50;99.90;;;;;;5035420;28;20036;-77
2023/10/29 02:28:38;;;;;;;10.25;7.40;;;11.60;99.90;;;;;;5053068;28;20124;-78
2023/10/29 02:31:03;;;;;;;11.60;7.97;;;11.60;99.90;;;;;;5034950;28;20124;-78
2023/10/29 02:33:30;;;;;;;11.10;7.65;;;11.70;99.90;;;;;;5051667;28;20496;-78
2023/10/29 02:35:56;;;;;;;12.68;7.40;;;11.70;99.90;;;;;;5051749;28;20049;-78
2023/10/29 02:38:23;;;;;;;11.52;7.72;;;11.70;99.90;;;;;;5035471;28;20088;-78
2023/10/29 02:40:49;;;;;;;11.13;7.80;;;11.70;99.90;;;;;;5035180;28;20057;-77
2023/10/29 02:43:16;;;;;;;13.70;7.38;;;11.70;99.90;;;;;;5037645;28;20525;-78
2023/10/29 02:45:41;;;;;;;10.32;7.25;;;11.70;99.90;;;;;;5038520;28;20557;-78
2023/10/29 02:48:07;;;;;;;10.13;7.18;;;11.70;99.90;;;;;;5038905;28;20068;-78
2023/10/29 02:50:35;;;;;;;10.27;6.45;;;11.70;99.90;;;;;;5038620;28;20053;-78
2023/10/29 02:53:01;;;;;;;10.50;6.80;;;11.70;99.90;;;;;;5038591;28;20057;-78
2023/10/29 02:55:29;;;;;;;11.48;6.22;;;11.80;99.90;;;;;;5038734;28;20037;-77
2023/10/29 02:57:54;;;;;;;9.13;6.13;;;11.80;99.90;;;;;;5038633;28;20041;-78
2023/10/29 03:00:20;;;;;;;9.60;5.32;;;11.80;99.90;;;;;;5038634;28;20037;-77
2023/10/29 03:02:46;;;;;;;8.10;4.88;;;11.90;99.90;;;;;;5038463;28;20041;-77
2023/10/29 03:05:12;;;;;;;8.52;4.65;;;11.90;99.90;;;;;;5038458;28;20049;-78
2023/10/29 03:07:38;;;;;;;11.07;5.00;;;11.90;99.90;;;;;;5038072;28;20044;-77
2023/10/29 03:10:07;;;;;;;6.75;4.32;;;11.90;99.90;;;;;;5038100;28;20476;-78
2023/10/29 03:12:33;;;;;;;7.53;4.50;;;12.00;99.90;;;;;;5054683;28;20055;-78
2023/10/29 03:15:00;;;;;;;10.65;4.63;;;12.00;99.90;;;;;;5037936;28;20135;-78
2023/10/29 03:17:26;;;;;;;6.80;4.28;;;11.90;99.90;;;;;;5038173;28;20060;-78
2023/10/29 03:19:52;;;;;;;7.28;4.25;;;12.00;99.90;;;;;;5038093;28;20439;-78
2023/10/29 03:22:18;;;;;;;8.25;4.13;;;12.00;99.90;;;;;;5054861;28;20472;-78
2023/10/29 03:24:43;;;;;;;9.13;3.97;;;12.00;99.90;;;;;;5038124;28;20048;-78
2023/10/29 03:27:09;;;;;;;6.22;3.63;;;12.00;99.90;;;;;;5038165;28;20036;-78
2023/10/29 03:29:34;;;;;;;6.00;3.10;;;11.90;99.90;;;;;;5037882;28;20487;-77
2023/10/29 03:32:00;;;;;;;8.48;2.80;;;12.00;99.90;;;;;;5038202;28;20171;-78
2023/10/29 03:34:26;;;;;;;5.10;2.70;;;12.00;99.90;;;;;;5054720;28;20076;-78
2023/10/29 03:36:52;;;;;;;5.28;2.80;;;12.00;99.90;;;;;;5037790;28;20088;-77
2023/10/29 03:39:17;;;;;;;9.10;3.22;;;12.00;99.90;;;;;;5055843;28;20168;-78
2023/10/29 03:41:43;;;;;;;8.73;3.30;;;12.00;99.90;;;;;;5054417;28;20045;-78
2023/10/29 03:44:09;;;;;;;8.18;3.50;;;12.00;99.90;;;;;;5037616;28;20049;-78
2023/10/29 03:46:34;;;;;;;6.72;2.75;;;12.00;99.90;;;;;;5054297;28;20049;-77
2023/10/29 03:49:00;;;;;;;7.13;3.20;;;12.00;99.90;;;;;;5037898;28;20052;-77
2023/10/29 03:51:28;;;;;;;8.68;2.80;;;12.00;99.90;;;;;;5037360;28;20492;-78
2023/10/29 03:53:54;;;;;;;8.38;3.00;;;12.00;99.90;;;;;;5054515;28;20041;-78
2023/10/29 03:56:20;;;;;;;8.82;3.10;;;12.10;99.90;;;;;;5054272;28;20045;-79
2023/10/29 03:58:46;;;;;;;5.95;2.45;;;12.10;99.90;;;;;;5054955;28;20111;-78
2023/10/29 04:01:15;;;;;;;6.22;2.13;;;12.00;99.90;;;;;;5037506;28;20051;-78
2023/10/29 04:03:43;;;;;;;6.80;2.40;;;12.10;99.90;;;;;;5037593;28;20053;-78
2023/10/29 04:06:10;;;;;;;6.82;3.08;;;12.00;99.90;;;;;;5037186;28;20060;-77
2023/10/29 04:08:36;;;;;;;5.20;2.35;;;12.00;99.90;;;;;;5037084;28;20424;-77
2023/10/29 04:11:02;;;;;;;5.88;2.40;;;12.00;99.90;;;;;;5036945;28;20060;-77
2023/10/29 04:13:28;;;;;;;4.68;2.10;;;12.00;99.90;;;;;;5036373;28;20049;-78
2023/10/29 04:15:53;;;;;;;5.15;2.38;;;12.00;99.90;;;;;;5017392;28;20053;-78
2023/10/29 04:18:19;;;;;;;6.05;1.90;;;12.00;99.90;;;;;;5034856;28;20124;-77
2023/10/29 04:20:45;;;;;;;5.10;1.80;;;11.90;99.90;;;;;;5017155;28;20400;-78
2023/10/29 04:23:11;;;;;;;4.70;1.75;;;12.00;99.90;;;;;;5017008;28;20073;-78
2023/10/29 04:25:36;;;;;;;5.10;1.75;;;12.00;99.90;;;;;;5017275;28;20076;-78
2023/10/29 04:28:02;;;;;;;5.20;1.55;;;12.00;99.90;;;;;;5017238;28;20473;-78
2023/10/29 04:30:28;;;;;;;5.47;1.65;;;12.10;99.90;;;;;;5017115;28;20042;-77
2023/10/29 04:32:53;;;;;;;3.08;1.40;;;12.10;99.90;;;;;;5016793;28;20512;-77
2023/10/29 04:35:19;;;;;;;4.85;1.50;;;12.10;99.90;;;;;;5016919;28;20611;-77
2023/10/29 04:37:45;;;;;;;3.35;1.52;;;12.10;99.90;;;;;;5016761;28;20504;-78
2023/10/29 04:40:11;;;;;;;3.40;1.20;;;12.10;99.90;;;;;;5017000;28;20100;-78
2023/10/29 04:42:36;;;;;;;2.85;0.95;;;12.20;99.90;;;;;;5016799;28;20477;-78
2023/10/29 04:45:03;;;;;;;5.00;1.10;;;12.20;99.90;;;;;;5016843;28;20136;-78
2023/10/29 04:47:29;;;;;;;2.83;1.10;;;12.20;99.90;;;;;;5016845;28;20049;-78
2023/10/29 04:49:54;;;;;;;2.90;1.10;;;12.20;99.90;;;;;;5016646;28;20100;-77
2023/10/29 04:52:20;;;;;;;5.75;0.95;;;12.20;99.90;;;;;;5016758;28;20500;-77
2023/10/29 04:54:46;;;;;;;2.75;0.68;;;12.20;99.90;;;;;;5016579;28;20066;-77
2023/10/29 04:57:11;;;;;;;3.85;0.70;;;12.00;99.90;;;;;;5016855;28;20091;-77
2023/10/29 04:59:37;;;;;;;2.92;1.02;;;12.00;99.90;;;;;;5016617;28;20044;-78
2023/10/29 05:02:03;;;;;;;4.53;1.00;;;12.00;99.90;;;;;;5016731;28;20124;-78
2023/10/29 05:04:30;;;;;;;1.33;0.60;;;11.90;99.90;;;;;;5016398;28;20172;-78
2023/10/29 05:06:56;;;;;;;5.05;0.50;;;11.80;99.90;;;;;;5016300;28;20449;-78
2023/10/29 05:09:21;;;;;;;2.92;0.70;;;11.80;99.90;;;;;;5016481;28;20120;-78
2023/10/29 05:11:47;;;;;;;3.38;0.50;;;11.80;99.90;;;;;;5016478;28;20045;-78
2023/10/29 05:14:13;;;;;;;4.90;0.60;;;11.80;99.90;;;;;;5016100;28;20378;-78
2023/10/29 05:16:40;;;;;;;1.63;0.40;;;11.70;99.90;;;;;;5016174;28;20057;-78
2023/10/29 05:19:05;;;;;;;2.50;0.65;;;11.70;99.90;;;;;;5015894;28;20053;-78
2023/10/29 05:21:31;;;;;;;2.55;0.60;;;11.70;99.90;;;;;;5016056;28;20053;-78
2023/10/29 05:23:57;;;;;;;1.90;0.40;;;11.60;99.90;;;;;;5015949;28;20049;-78
2023/10/29 05:26:22;;;;;;;4.18;0.60;;;11.60;99.90;;;;;;5016028;28;20492;-78
2023/10/29 05:28:48;;;;;;;2.35;0.57;;;11.50;99.90;;;;;;5015926;28;20042;-78
2023/10/29 05:31:13;;;;;;;1.80;0.40;;;11.50;99.90;;;;;;5016220;28;20049;-79
2023/10/29 05:33:39;;;;;;;1.67;0.55;;;11.50;99.90;;;;;;5016830;28;20088;-78
2023/10/29 05:36:05;;;;;;;3.67;0.60;;;11.50;99.90;;;;;;5015833;28;20382;-79
2023/10/29 05:38:31;;;;;;;3.72;0.50;;;11.50;99.90;;;;;;5015649;28;20049;-79
2023/10/29 05:40:56;;;;;;;1.38;0.60;;;11.50;99.90;;;;;;5015904;28;20053;-79
2023/10/29 05:43:22;;;;;;;1.67;0.50;;;11.50;99.90;;;;;;5033639;28;20038;-79
2023/10/29 05:45:47;;;;;;;2.50;1.17;;;11.50;99.90;;;;;;5016018;28;20432;-78
2023/10/29 05:48:13;;;;;;;2.67;0.68;;;11.50;99.90;;;;;;5015912;28;20045;-79
2023/10/29 05:50:39;;;;;;;2.30;0.80;;;11.60;99.90;;;;;;5033273;28;20049;-79
2023/10/29 05:53:05;;;;;;;4.07;0.70;;;11.60;99.90;;;;;;5033571;28;20034;-79
2023/10/29 05:55:30;;;;;;;2.20;0.63;;;11.60;99.90;;;;;;5033398;28;20425;-79
2023/10/29 05:57:56;;;;;;;3.97;0.93;;;11.70;99.90;;;;;;5033512;28;20069;-79
2023/10/29 06:00:22;;;;;;;3.05;1.00;;;11.70;99.90;;;;;;5015912;28;20038;-79
2023/10/29 06:03:02;;;;;;;3.95;1.08;;;11.80;99.90;;;;;;5033257;28;20033;-78
2023/10/29 06:05:28;;;;;;;3.05;0.80;;;11.80;99.90;;;;;;5016009;28;20045;-78
2023/10/29 06:07:54;;;;;;;4.78;1.45;;;11.90;99.90;;;;;;5015802;28;20477;-79
2023/10/29 06:10:20;;;;;;;3.30;1.10;;;12.00;99.90;;;;;;5015462;28;20100;-79
2023/10/29 06:12:45;;;;;;;2.40;0.90;;;12.10;99.90;;;;;;5015899;28;20046;-79
2023/10/29 06:15:11;;;;;;;2.97;0.90;;;12.10;99.90;;;;;;5029774;28;20408;-79
2023/10/29 06:17:38;;;;;;;11.10;1.10;;;12.10;99.90;;;;;;5037250;28;20083;-79
2023/10/29 06:20:04;;;;;;;5.32;1.20;;;12.10;99.90;;;;;;5057274;28;20037;-79
2023/10/29 06:22:31;;;;;;;3.08;0.88;;;12.10;99.90;;;;;;5039115;28;20459;-79
2023/10/29 06:24:57;;;;;;;3.33;0.75;;;12.20;99.90;;;;;;5039393;28;20088;-79
2023/10/29 06:27:22;;;;;;;5.35;0.95;;;12.10;99.90;;;;;;5039144;28;20045;-78
2023/10/29 06:29:48;;;;;;;3.40;1.05;;;12.10;99.90;;;;;;5038754;28;20045;-78
2023/10/29 06:32:13;;;;;;;4.70;0.90;;;12.10;99.90;;;;;;5038093;28;20060;-78
2023/10/29 06:34:39;;;;;;;1.67;0.60;;;12.00;99.90;;;;;;5056501;28;20052;-78
2023/10/29 06:37:05;;;;;;;5.13;0.63;;;12.00;99.90;;;;;;5038661;28;20045;-78
2023/10/29 06:39:32;;;;;;;5.05;0.70;;;12.00;99.90;;;;;;5038786;28;20057;-78
2023/10/29 06:41:58;;;;;;;3.70;0.73;;;11.90;99.90;;;;;;5038561;28;20055;-78
2023/10/29 06:44:24;;;;;;;2.88;0.60;;;12.00;99.90;;;;;;5038398;28;20090;-78
2023/10/29 06:46:50;;;;;;;1.30;0.50;;;11.90;99.90;;;;;;5056261;28;20052;-77
2023/10/29 06:49:19;;;;;;;2.38;0.52;;;11.90;99.90;;;;;;5056536;28;20041;-79
2023/10/29 06:51:44;;;;;;;1.83;0.65;;;12.00;99.90;;;;;;5038301;28;20049;-78
2023/10/29 06:54:16;;;;;;;1.67;0.65;;;11.90;99.90;;;;;;5051444;22;20101;-78
2023/10/29 06:56:57;;;;;;;1.17;0.50;;;11.90;99.90;;;;;;5078423;28;20058;-77
2023/10/29 06:59:57;;;;;;;1.33;0.57;;;12.00;99.90;;;;;;5078792;28;20047;-77
2023/10/29 07:02:23;;;;;;;3.50;1.00;;;12.00;99.90;;;;;;5078244;28;20048;-77
2023/10/29 07:04:49;;;;;;;3.60;0.60;;;12.00;99.90;;;;;;5096471;28;20042;-77
2023/10/29 07:07:18;;;;;;;3.65;0.75;;;12.00;99.90;;;;;;5077877;28;20446;-77
2023/10/29 07:09:44;;;;;;;4.50;0.70;;;12.00;99.90;;;;;;5077972;28;20564;-77
2023/10/29 07:12:09;;;;;;;3.38;0.70;;;12.00;99.90;;;;;;5078290;28;20043;-77
2023/10/29 07:14:35;;;;;;;3.88;0.65;;;12.00;99.90;;;;;;5096433;28;20044;-77
2023/10/29 07:17:01;;;;;;;3.53;0.63;;;12.00;99.90;;;;;;5096365;28;20044;-79
2023/10/29 07:19:29;;;;;;;3.15;0.80;;;12.00;99.90;;;;;;5078285;28;20100;-77
2023/10/29 07:21:55;;;;;;;2.03;0.80;;;12.00;99.90;;;;;;5096167;28;20120;-78
2023/10/29 07:24:21;;;;;;;7.40;1.30;;;12.00;99.90;;;;;;5077988;28;20473;-78
2023/10/29 07:26:46;;;;;;;5.25;1.20;;;12.00;99.90;;;;;;5077436;28;20055;-76
2023/10/29 07:29:12;;;;;;;6.45;1.10;;;12.10;99.90;;;;;;5075789;28;20052;-76
2023/10/29 07:31:37;;;;;;;4.43;1.20;;;12.10;99.90;;;;;;5076984;28;20048;-76
2023/10/29 07:34:03;;;;;;;5.35;0.90;;;12.10;99.90;;;;;;5077494;28;20075;-75
2023/10/29 07:36:29;;;;;;;5.25;1.50;;;12.10;99.90;;;;;;5077311;28;20044;-76
2023/10/29 07:38:55;;;;;;;7.10;2.22;;;12.10;99.90;;;;;;5095462;28;20044;-76
2023/10/29 07:41:21;;;;;;;8.75;1.67;;;12.20;99.90;;;;;;5095419;28;20055;-76
2023/10/29 07:43:48;;;;;;;9.90;1.00;;;12.20;99.90;;;;;;5095474;28;20044;-76
2023/10/29 07:46:14;;;;;;;4.78;0.95;;;12.20;99.90;;;;;;5095300;28;20048;-76
2023/10/29 07:48:40;;;;;;;3.20;0.90;;;12.30;99.90;;;;;;5077364;28;20078;-76
2023/10/29 07:51:06;;;;;;;5.65;1.58;;;12.40;99.90;;;;;;5076912;28;20055;-76
2023/10/29 07:53:31;;;;;;;10.18;1.50;;;12.40;99.90;;;;;;5077089;28;20036;-76
2023/10/29 07:56:10;;;;;;;5.18;1.10;;;12.30;99.90;;;;;;5076928;28;20058;-76
2023/10/29 07:58:37;;;;;;;5.65;1.33;;;12.30;99.90;;;;;;5077055;28;20044;-76
2023/10/29 08:01:09;;;;;;;7.97;1.30;;;12.30;99.90;;;;;;5076939;28;20536;-75
2023/10/29 08:03:35;;;;;;;9.15;1.27;;;12.30;99.90;;;;;;5076860;28;20040;-75
2023/10/29 08:06:00;;;;;;;5.40;1.15;;;12.30;99.90;;;;;;5077243;28;20056;-75
2023/10/29 08:08:26;;;;;;;9.23;1.27;;;12.40;99.90;;;;;;5094439;28;20044;-76
2023/10/29 08:10:52;;;;;;;7.30;1.95;;;12.30;99.90;;;;;;5094873;28;20467;-75
2023/10/29 08:13:17;;;;;;;5.63;1.50;;;12.20;99.90;;;;;;5076754;28;20040;-75
2023/10/29 08:15:43;;;;;;;6.80;1.25;;;12.20;99.90;;;;;;5094603;28;20078;-75
2023/10/29 08:18:08;;;;;;;8.23;1.58;;;12.10;99.90;;;;;;5076632;28;20073;-76
2023/10/29 08:20:34;;;;;;;7.35;1.20;;;12.10;99.90;;;;;;5094883;28;20032;-75
2023/10/29 08:23:00;;;;;;;5.50;1.10;;;12.00;99.90;;;;;;5076396;28;20051;-75
2023/10/29 08:25:25;;;;;;;8.73;1.52;;;11.90;99.90;;;;;;5076706;28;20051;-75
2023/10/29 08:27:51;;;;;;;4.95;1.35;;;11.90;99.90;;;;;;5083763;22;20403;-76
2023/10/29 08:30:17;;;;;;;7.63;1.50;;;11.90;99.90;;;;;;5076415;28;20048;-76
2023/10/29 08:32:43;;;;;;;7.97;1.70;;;11.90;99.90;;;;;;5076431;28;20481;-76
2023/10/29 08:35:09;;;;;;;4.35;1.20;;;11.90;99.90;;;;;;5076305;28;20387;-76
2023/10/29 08:37:35;;;;;;;5.63;1.20;;;11.90;99.90;;;;;;5094204;28;20105;-76
2023/10/29 08:40:01;;;;;;;7.88;1.55;;;11.90;99.90;;;;;;5075754;28;20143;-77
2023/10/29 08:42:29;;;;;;;7.18;1.60;;;11.90;99.90;;;;;;5076134;28;20052;-77
2023/10/29 08:44:59;;;;;;;5.20;1.25;;;11.90;99.90;;;;;;5076200;28;20127;-77
2023/10/29 08:47:25;;;;;;;7.85;1.60;;;11.90;99.90;;;;;;5076038;28;20062;-76
2023/10/29 08:49:51;;;;;;;7.88;1.42;;;11.90;99.90;;;;;;5094328;28;20071;-76
2023/10/29 08:52:17;;;;;;;6.85;1.60;;;11.90;99.90;;;;;;5076033;28;20083;-77
2023/10/29 08:54:47;;;;;;;7.90;1.25;;;11.80;99.90;;;;;;5075914;28;20047;-76
2023/10/29 08:57:12;;;;;;;6.55;1.30;;;11.80;99.90;;;;;;5075870;28;20087;-76
2023/10/29 08:59:38;;;;;;;10.50;1.65;;;11.80;99.90;;;;;;5075710;28;20084;-76
2023/10/29 09:02:04;;;;;;;6.15;1.25;;;11.80;99.90;;;;;;5075561;28;20055;-77
2023/10/29 09:04:32;;;;;;;9.07;1.50;;;11.80;99.90;;;;;;5075671;28;20055;-76
2023/10/29 09:06:57;;;;;;;7.68;1.38;;;11.90;99.90;;;;;;5075871;28;20079;-77
2023/10/29 09:09:23;;;;;;;11.80;1.60;;;11.90;99.90;;;;;;5075654;28;20079;-76
2023/10/29 09:11:53;;;;;;;6.82;1.30;;;11.90;99.90;;;;;;5075530;28;20050;-77
2023/10/29 09:14:19;;;;;;;11.43;2.28;;;11.90;99.90;;;;;;5075459;28;20050;-76
2023/10/29 09:16:47;;;;;;;7.68;1.60;;;11.90;99.90;;;;;;5075889;28;20048;-76
2023/10/29 09:19:13;;;;;;;6.93;1.60;;;12.00;99.90;;;;;;5075379;28;20474;-76
2023/10/29 09:21:39;;;;;;;8.82;1.20;;;12.20;99.90;;;;;;5075408;28;20044;-77
2023/10/29 09:24:06;;;;;;;6.38;1.30;;;12.30;99.90;;;;;;5075639;28;20122;-77
2023/10/29 09:26:40;;;;;;;5.40;1.20;;;12.40;99.90;;;;;;5093795;28;20052;-77
2023/10/29 09:29:08;;;;;;;5.07;1.00;;;12.50;99.90;;;;;;5087238;28;20056;-76
2023/10/29 09:31:34;;;;;;;8.45;2.22;;;12.50;99.90;;;;;;5092108;28;20052;-75
2023/10/29 09:34:01;;;;;;;7.55;1.67;;;12.40;99.90;;;;;;5092462;28;20051;-75
2023/10/29 09:36:27;;;;;;;6.03;1.33;;;12.40;99.90;;;;;;5092157;28;20510;-76
2023/10/29 09:38:52;;;;;;;8.98;0.93;;;12.40;99.90;;;;;;5093626;28;20036;-76
2023/10/29 09:41:18;;;;;;;7.32;1.05;;;12.40;99.90;;;;;;5092193;28;20391;-76
2023/10/29 09:43:44;;;;;;;4.22;0.98;;;12.40;99.90;;;;;;5092745;28;20107;-75
2023/10/29 09:46:11;;;;;;;5.03;1.08;;;12.30;99.90;;;;;;5092311;28;20059;-76
2023/10/29 09:48:38;;;;;;;8.52;1.50;;;12.30;99.90;;;;;;5092319;28;20040;-75
2023/10/29 09:51:05;;;;;;;5.78;2.05;;;12.30;99.90;;;;;;5091733;28;20498;-77
2023/10/29 09:53:33;;;;;;;10.02;1.73;;;12.50;99.90;;;;;;5095504;28;20047;-76
2023/10/29 09:55:59;;;;;;;6.60;1.33;;;12.50;99.90;;;;;;5096486;28;20495;-77
2023/10/29 09:58:26;;;;;;;9.18;1.52;;;12.60;99.90;;;;;;5096292;28;20040;-76
2023/10/29 10:00:53;;;;;;;6.13;1.13;;;12.60;99.90;;;;;;5096337;28;20059;-76
2023/10/29 10:03:18;;;;;;;4.80;1.50;;;12.60;99.90;;;;;;5096251;28;20044;-77
2023/10/29 10:05:47;;;;;;;6.63;1.27;;;12.60;99.90;;;;;;5095841;28;20398;-76
2023/10/29 10:08:13;;;;;;;6.88;1.75;;;12.60;99.90;;;;;;5096004;28;20449;-75
2023/10/29 10:10:40;;;;;;;5.13;1.38;;;12.60;99.90;;;;;;5095930;28;20044;-76
2023/10/29 10:13:07;;;;;;;7.82;2.03;;;12.50;99.90;;;;;;5096287;28;20043;-75
2023/10/29 10:15:33;;;;;;;3.50;1.20;;;12.60;99.90;;;;;;5095803;28;20051;-76
2023/10/29 10:18:06;;;;;;;5.80;1.58;;;12.60;99.90;;;;;;5096093;28;20043;-76
2023/10/29 10:20:36;;;;;;;8.98;1.65;;;12.70;99.90;;;;;;5095705;28;20047;-76
2023/10/29 10:23:11;;;;;;;9.38;1.55;;;12.90;99.90;;;;;;5095749;28;20390;-76
2023/10/29 10:25:40;;;;;;;4.05;1.33;;;13.00;99.90;;;;;;5097015;28;20032;-76
2023/10/29 10:28:06;;;;;;;8.73;1.60;;;13.00;99.90;;;;;;5095369;28;20052;-76
2023/10/29 10:30:38;;;;;;;5.15;1.80;;;13.10;99.90;;;;;;5095732;28;20044;-75
2023/10/29 10:33:15;;;;;;;6.53;1.55;;;13.10;99.90;;;;;;5095435;28;20451;-76
2023/10/29 10:35:46;;;;;;;6.55;1.50;;;13.10;99.90;;;;;;5095226;28;20055;-76
2023/10/29 10:38:18;;;;;;;5.25;1.60;;;13.20;99.90;;;;;;5095240;28;20048;-75
2023/10/29 10:40:47;;;;;;;5.13;1.77;;;13.10;99.90;;;;;;5095236;28;20419;-75
2023/10/29 10:43:19;;;;;;;10.65;2.00;;;13.20;99.90;;;;;;5095210;28;20052;-75
2023/10/29 10:45:55;;;;;;;7.93;1.60;;;13.30;99.90;;;;;;5095180;28;20044;-75
2023/10/29 10:48:20;;;;;;;5.50;2.20;;;13.40;99.90;;;;;;5095433;28;20479;-75
2023/10/29 10:50:46;;;;;;;9.68;1.35;;;13.40;99.90;;;;;;5095197;28;20071;-75
2023/10/29 10:53:16;;;;;;;5.68;1.42;;;13.30;99.90;;;;;;5096508;28;20036;-77
2023/10/29 10:55:43;;;;;;;8.68;1.77;;;13.20;99.90;;;;;;5095676;28;20059;-76
2023/10/29 10:58:12;;;;;;;9.35;1.70;;;13.20;99.90;;;;;;5095148;28;20044;-77
2023/10/29 11:00:38;;;;;;;5.25;1.63;;;13.20;99.90;;;;;;5095289;28;20395;-76
2023/10/29 11:03:05;;;;;;;6.78;1.30;;;13.10;99.90;;;;;;5096109;28;20131;-78
2023/10/29 11:05:44;;;;;;;8.88;1.85;;;13.10;99.90;;;;;;5160087;22;20048;-76
2023/10/29 11:08:21;;;;;;;11.05;2.08;;;13.10;99.90;;;;;;5078114;28;20502;-76
2023/10/29 11:10:47;;;;;;;8.45;2.10;;;13.10;99.90;;;;;;5096179;28;20127;-76
2023/10/29 11:13:20;;;;;;;6.85;1.73;;;13.10;99.90;;;;;;5077848;28;20109;-76
2023/10/29 11:15:47;;;;;;;6.53;1.55;;;13.20;99.90;;;;;;5077862;28;20146;-76
2023/10/29 11:18:13;;;;;;;8.30;1.77;;;13.10;99.90;;;;;;5078280;28;20498;-75
2023/10/29 11:20:49;;;;;;;6.93;1.77;;;13.10;99.90;;;;;;5096066;28;20036;-76
2023/10/29 11:23:16;;;;;;;6.88;1.80;;;13.00;99.90;;;;;;5077890;28;20048;-76
2023/10/29 11:25:42;;;;;;;5.07;1.45;;;13.00;99.90;;;;;;5088092;28;20044;-75
2023/10/29 11:28:23;;;;;;;4.88;1.50;;;13.10;99.90;;;;;;5077369;28;20043;-75
2023/10/29 11:31:25;;;;;;;6.70;1.30;;;13.10;99.90;;;;;;5077614;28;20059;-75
2023/10/29 11:33:56;;;;;;;4.65;1.10;;;13.10;99.90;;;;;;5073172;28;20495;-75
2023/10/29 11:36:34;;;;;;;7.63;1.13;;;13.10;99.90;;;;;;5077402;28;20048;-75
2023/10/29 11:39:15;;;;;;;4.43;1.00;;;13.20;99.90;;;;;;5077357;28;20086;-76
2023/10/29 11:41:42;;;;;;;5.80;1.08;;;13.20;99.90;;;;;;5077477;28;20101;-75
2023/10/29 11:44:25;;;;;;;7.10;1.20;;;13.30;99.90;;;;;;5077331;28;20044;-75
2023/10/29 11:47:02;;;;;;;5.28;0.80;;;13.20;99.90;;;;;;5077550;28;20040;-75
2023/10/29 11:49:44;;;;;;;6.50;1.38;;;13.30;99.90;;;;;;5077190;28;20491;-75
2023/10/29 11:52:09;;;;;;;7.20;1.10;;;13.30;99.90;;;;;;5077018;28;20055;-75
2023/10/29 11:54:38;;;;;;;6.05;1.42;;;13.30;99.90;;;;;;5095466;28;20036;-75
2023/10/29 11:57:07;;;;;;;6.25;1.33;;;13.30;99.90;;;;;;5077263;28;20059;-75
2023/10/29 11:59:33;;;;;;;10.00;1.95;;;13.30;99.90;;;;;;5076980;28;20123;-80
2023/10/29 12:01:59;;;;;;;6.25;1.50;;;13.40;99.90;;;;;;5076823;28;20130;-75
2023/10/29 12:04:33;;;;;;;6.45;1.08;;;13.40;99.90;;;;;;5094415;28;20040;-75
2023/10/29 12:07:00;;;;;;;7.15;1.20;;;13.40;99.90;;;;;;5076736;28;20498;-74
2023/10/29 12:09:27;;;;;;;6.95;1.38;;;13.30;99.90;;;;;;5076684;28;20487;-75
2023/10/29 12:11:54;;;;;;;8.57;1.00;;;13.30;99.90;;;;;;5076677;28;20047;-75
2023/10/29 12:14:46;;;;;;;7.70;1.35;;;13.30;99.90;;;;;;5076205;28;20044;-74
2023/10/29 12:17:13;;;;;;;9.17;1.40;;;13.40;99.90;;;;;;5076861;28;20044;-74
2023/10/29 12:19:44;;;;;;;9.85;1.50;;;13.40;99.90;;;;;;5076504;28;20040;-75
2023/10/29 12:22:24;;;;;;;8.52;1.20;;;13.30;99.90;;;;;;5076872;28;20048;-74
2023/10/29 12:24:53;;;;;;;8.20;1.23;;;13.30;99.90;;;;;;5094856;28;20044;-75
2023/10/29 12:27:21;;;;;;;9.68;2.13;;;13.20;99.90;;;;;;5076785;28;20079;-75
2023/10/29 12:29:47;;;;;;;14.05;1.95;;;13.20;99.90;;;;;;5076295;28;20127;-75
2023/10/29 12:32:23;;;;;;;7.80;1.52;;;13.20;99.90;;;;;;5076161;28;20048;-75
2023/10/29 12:34:59;;;;;;;4.63;1.33;;;13.10;99.90;;;;;;5076183;28;20094;-76
2023/10/29 12:37:29;;;;;;;8.57;1.88;;;13.10;99.90;;;;;;5094436;28;20369;-78
2023/10/29 12:40:01;;;;;;;10.63;1.60;;;13.10;99.90;;;;;;5076103;28;20052;-75
2023/10/29 12:42:52;;;;;;;9.05;1.30;;;13.10;99.90;;;;;;5094274;28;20040;-81
2023/10/29 12:45:30;;;;;;;9.13;1.50;;;13.10;99.90;;;;;;5076031;28;20090;-76